sensor_id;sensor_type;location;lat;lon;timestamp;pressure;altitude;pressure_sealevel;temperature;humidity
45253;BME280;63171;50.520;30.486;2023-12-20T00:00:13;99468.28;;;6.97;100.00
45253;BME280;63171;50.520;30.486;2023-12-20T00:01:03;99464.00;;;6.96;100.00
45253;BME280;63171;50.520;30.486;2023-12-20T00:01:52;99468.44;;;6.94;100.00
45253;BME280;63171;50.520;30.486;2023-12-20T00:02:43;99472.75;;;6.95;100.00
45253;BME280;63171;50.520;30.486;2023-12-20T00:03:36;99462.34;;;6.95;100.00
45253;BME280;63171;50.520;30.486;2023-12-20T00:04:25;99477.94;;;6.95;100.00
45253;BME280;63171;50.520;30.486;2023-12-20T00:05:15;99457.19;;;6.93;100.00
45253;BME280;63171;50.520;30.486;2023-12-20T00:06:05;99458.94;;;6.93;100.00
45253;BME280;63171;50.520;30.486;2023-12-20T00:06:56;99462.47;;;6.92;100.00
45253;BME280;63171;50.520;30.486;2023-12-20T00:07:46;99453.66;;;6.94;100.00
45253;BME280;63171;50.520;30.486;2023-12-20T00:08:35;99458.72;;;6.97;100.00
45253;BME280;63171;50.520;30.486;2023-12-20T00:09:26;99451.03;;;6.94;100.00
45253;BME280;63171;50.520;30.486;2023-12-20T00:10:15;99446.75;;;6.93;100.00
45253;BME280;63171;50.520;30.486;2023-12-20T00:11:05;99449.38;;;6.93;100.00
45253;BME280;63171;50.520;30.486;2023-12-20T00:11:56;99450.06;;;6.97;100.00
45253;BME280;63171;50.520;30.486;2023-12-20T00:12:46;99455.94;;;7.00;100.00
45253;BME280;63171;50.520;30.486;2023-12-20T00:13:37;99458.47;;;7.02;100.00
45253;BME280;63171;50.520;30.486;2023-12-20T00:14:27;99444.59;;;7.01;100.00
45253;BME280;63171;50.520;30.486;2023-12-20T00:15:17;99441.16;;;7.01;100.00
45253;BME280;63171;50.520;30.486;2023-12-20T00:16:07;99447.19;;;7.01;100.00
45253;BME280;63171;50.520;30.486;2023-12-20T00:16:57;99439.31;;;7.03;100.00
45253;BME280;63171;50.520;30.486;2023-12-20T00:17:47;99437.44;;;7.05;100.00
45253;BME280;63171;50.520;30.486;2023-12-20T00:18:36;99442.34;;;6.95;100.00
45253;BME280;63171;50.520;30.486;2023-12-20T00:19:27;99438.91;;;6.95;100.00
45253;BME280;63171;50.520;30.486;2023-12-20T00:20:16;99437.28;;;6.92;100.00
45253;BME280;63171;50.520;30.486;2023-12-20T00:21:07;99438.03;;;6.94;100.00
45253;BME280;63171;50.520;30.486;2023-12-20T00:21:57;99431.66;;;7.00;100.00
45253;BME280;63171;50.520;30.486;2023-12-20T00:22:48;99424.59;;;7.02;100.00
45253;BME280;63171;50.520;30.486;2023-12-20T00:23:38;99420.31;;;7.01;100.00
45253;BME280;63171;50.520;30.486;2023-12-20T00:24:27;99415.97;;;7.01;100.00
45253;BME280;63171;50.520;30.486;2023-12-20T00:25:18;99416.78;;;7.02;100.00
45253;BME280;63171;50.520;30.486;2023-12-20T00:26:07;99411.50;;;7.03;100.00
45253;BME280;63171;50.520;30.486;2023-12-20T00:26:57;99416.88;;;7.00;100.00
45253;BME280;63171;50.520;30.486;2023-12-20T00:27:47;99411.59;;;7.02;100.00
45253;BME280;63171;50.520;30.486;2023-12-20T00:28:41;99402.84;;;7.03;100.00
45253;BME280;63171;50.520;30.486;2023-12-20T00:29:51;99410.75;;;7.01;100.00
45253;BME280;63171;50.520;30.486;2023-12-20T00:30:41;99409.91;;;7.01;100.00
45253;BME280;63171;50.520;30.486;2023-12-20T00:31:31;99402.84;;;7.03;100.00
45253;BME280;63171;50.520;30.486;2023-12-20T00:32:21;99402.75;;;7.04;100.00
45253;BME280;63171;50.520;30.486;2023-12-20T00:33:10;99400.16;;;7.04;100.00
45253;BME280;63171;50.520;30.486;2023-12-20T00:34:01;99394.94;;;7.04;100.00
45253;BME280;63171;50.520;30.486;2023-12-20T00:34:51;99389.75;;;7.04;100.00
45253;BME280;63171;50.520;30.486;2023-12-20T00:35:41;99383.63;;;7.05;100.00
45253;BME280;63171;50.520;30.486;2023-12-20T00:36:31;99394.94;;;7.04;100.00
45253;BME280;63171;50.520;30.486;2023-12-20T00:37:20;99387.84;;;7.08;100.00
45253;BME280;63171;50.520;30.486;2023-12-20T00:38:10;99378.50;;;7.04;100.00
45253;BME280;63171;50.520;30.486;2023-12-20T00:39:01;99380.16;;;7.05;100.00
45253;BME280;63171;50.520;30.486;2023-12-20T00:39:50;99382.69;;;7.06;100.00
45253;BME280;63171;50.520;30.486;2023-12-20T00:40:40;99384.53;;;7.04;100.00
45253;BME280;63171;50.520;30.486;2023-12-20T00:41:30;99382.78;;;7.05;100.00
45253;BME280;63171;50.520;30.486;2023-12-20T00:42:20;99377.66;;;7.03;100.00
45253;BME280;63171;50.520;30.486;2023-12-20T00:43:10;99379.41;;;7.03;100.00
45253;BME280;63171;50.520;30.486;2023-12-20T00:44:02;99376.72;;;7.04;100.00
45253;BME280;63171;50.520;30.486;2023-12-20T00:44:52;99366.50;;;7.01;100.00
45253;BME280;63171;50.520;30.486;2023-12-20T00:45:42;99376.06;;;7.01;100.00
45253;BME280;63171;50.520;30.486;2023-12-20T00:46:32;99373.13;;;7.07;100.00
45253;BME280;63171;50.520;30.486;2023-12-20T00:47:21;99370.50;;;7.07;100.00
45253;BME280;63171;50.520;30.486;2023-12-20T00:48:12;99365.38;;;7.05;100.00
45253;BME280;63171;50.520;30.486;2023-12-20T00:49:02;99367.91;;;7.07;100.00
45253;BME280;63171;50.520;30.486;2023-12-20T00:49:52;99372.22;;;7.08;100.00
45253;BME280;63171;50.520;30.486;2023-12-20T00:50:42;99371.28;;;7.09;100.00
45253;BME280;63171;50.520;30.486;2023-12-20T00:51:33;99373.81;;;7.10;100.00
45253;BME280;63171;50.520;30.486;2023-12-20T00:52:22;99374.63;;;7.11;100.00
45253;BME280;63171;50.520;30.486;2023-12-20T00:53:12;99371.19;;;7.10;100.00
45253;BME280;63171;50.520;30.486;2023-12-20T00:54:03;99377.25;;;7.11;100.00
45253;BME280;63171;50.520;30.486;2023-12-20T00:54:52;99373.63;;;7.14;100.00
45253;BME280;63171;50.520;30.486;2023-12-20T00:55:43;99377.06;;;7.14;100.00
45253;BME280;63171;50.520;30.486;2023-12-20T00:56:33;99365.91;;;7.12;100.00
45253;BME280;63171;50.520;30.486;2023-12-20T00:57:24;99370.94;;;7.15;100.00
45253;BME280;63171;50.520;30.486;2023-12-20T00:58:14;99364.97;;;7.13;100.00
45253;BME280;63171;50.520;30.486;2023-12-20T00:59:06;99361.44;;;7.14;100.00
45253;BME280;63171;50.520;30.486;2023-12-20T00:59:56;99362.47;;;7.11;100.00
45253;BME280;63171;50.520;30.486;2023-12-20T01:04:13;99353.06;;;7.09;100.00
45253;BME280;63171;50.520;30.486;2023-12-20T01:05:04;99351.53;;;7.05;100.00
45253;BME280;63171;50.520;30.486;2023-12-20T01:05:55;99360.19;;;7.05;100.00
45253;BME280;63171;50.520;30.486;2023-12-20T01:06:45;99356.00;;;7.03;100.00
45253;BME280;63171;50.520;30.486;2023-12-20T01:07:48;99347.53;;;6.99;100.00
45253;BME280;63171;50.520;30.486;2023-12-20T01:08:38;99349.94;;;7.02;100.00
45253;BME280;63171;50.520;30.486;2023-12-20T01:09:28;99350.88;;;7.01;100.00
45253;BME280;63171;50.520;30.486;2023-12-20T01:10:18;99351.63;;;7.03;100.00
45253;BME280;63171;50.520;30.486;2023-12-20T01:11:08;99346.25;;;7.06;100.00
45253;BME280;63171;50.520;30.486;2023-12-20T01:11:58;99359.19;;;7.08;100.00
45253;BME280;63171;50.520;30.486;2023-12-20T01:12:48;99355.56;;;7.10;100.00
45253;BME280;63171;50.520;30.486;2023-12-20T01:13:38;99352.78;;;7.14;100.00
45253;BME280;63171;50.520;30.486;2023-12-20T01:14:30;99339.78;;;7.14;100.00
45253;BME280;63171;50.520;30.486;2023-12-20T01:15:19;99345.06;;;7.12;100.00
45253;BME280;63171;50.520;30.486;2023-12-20T01:16:09;99326.75;;;7.14;100.00
45253;BME280;63171;50.520;30.486;2023-12-20T01:17:01;99332.88;;;7.13;100.00
45253;BME280;63171;50.520;30.486;2023-12-20T01:17:51;99344.06;;;7.15;100.00
45253;BME280;63171;50.520;30.486;2023-12-20T01:18:41;99342.88;;;7.04;100.00
45253;BME280;63171;50.520;30.486;2023-12-20T01:19:31;99341.97;;;7.05;100.00
45253;BME280;63171;50.520;30.486;2023-12-20T01:20:21;99341.03;;;7.06;100.00
45253;BME280;63171;50.520;30.486;2023-12-20T01:21:11;99336.75;;;7.05;100.00
45253;BME280;63171;50.520;30.486;2023-12-20T01:22:01;99325.34;;;7.08;100.00
45253;BME280;63171;50.520;30.486;2023-12-20T01:22:51;99342.72;;;7.07;100.00
45253;BME280;63171;50.520;30.486;2023-12-20T01:23:41;99339.22;;;7.08;100.00
45253;BME280;63171;50.520;30.486;2023-12-20T01:24:31;99332.66;;;7.01;100.00
45253;BME280;63171;50.520;30.486;2023-12-20T01:25:21;99338.69;;;7.02;100.00
45253;BME280;63171;50.520;30.486;2023-12-20T01:26:11;99336.84;;;7.04;100.00
45253;BME280;63171;50.520;30.486;2023-12-20T01:27:01;99334.16;;;7.05;100.00
45253;BME280;63171;50.520;30.486;2023-12-20T01:27:51;99333.91;;;7.10;100.00
45253;BME280;63171;50.520;30.486;2023-12-20T01:28:40;99327.09;;;7.07;100.00
45253;BME280;63171;50.520;30.486;2023-12-20T01:29:33;99326.94;;;7.10;100.00
45253;BME280;63171;50.520;30.486;2023-12-20T01:30:22;99333.16;;;7.08;100.00
45253;BME280;63171;50.520;30.486;2023-12-20T01:31:13;99323.63;;;7.07;100.00
45253;BME280;63171;50.520;30.486;2023-12-20T01:32:03;99325.41;;;7.06;100.00
45253;BME280;63171;50.520;30.486;2023-12-20T01:32:53;99312.31;;;7.08;100.00
45253;BME280;63171;50.520;30.486;2023-12-20T01:33:43;99316.50;;;7.10;100.00
45253;BME280;63171;50.520;30.486;2023-12-20T01:34:34;99320.06;;;7.09;100.00
45253;BME280;63171;50.520;30.486;2023-12-20T01:35:23;99323.59;;;7.08;100.00
45253;BME280;63171;50.520;30.486;2023-12-20T01:36:13;99318.53;;;7.05;100.00
45253;BME280;63171;50.520;30.486;2023-12-20T01:37:04;99332.81;;;6.98;100.00
45253;BME280;63171;50.520;30.486;2023-12-20T01:37:53;99324.00;;;7.01;100.00
45253;BME280;63171;50.520;30.486;2023-12-20T01:38:46;99315.09;;;7.05;100.00
45253;BME280;63171;50.520;30.486;2023-12-20T01:39:37;99316.00;;;7.04;100.00
45253;BME280;63171;50.520;30.486;2023-12-20T01:40:27;99314.34;;;7.03;100.00
45253;BME280;63171;50.520;30.486;2023-12-20T01:41:16;99307.63;;;6.99;100.00
45253;BME280;63171;50.520;30.486;2023-12-20T01:42:07;99317.69;;;7.05;100.00
45253;BME280;63171;50.520;30.486;2023-12-20T01:42:59;99311.56;;;7.06;100.00
45253;BME280;63171;50.520;30.486;2023-12-20T01:43:49;99310.47;;;7.10;100.00
45253;BME280;63171;50.520;30.486;2023-12-20T01:44:43;99320.38;;;7.03;100.00
45253;BME280;63171;50.520;30.486;2023-12-20T01:45:33;99315.25;;;7.02;100.00
45253;BME280;63171;50.520;30.486;2023-12-20T01:46:23;99302.44;;;6.99;100.00
45253;BME280;63171;50.520;30.486;2023-12-20T01:47:13;99305.88;;;6.99;100.00
45253;BME280;63171;50.520;30.486;2023-12-20T01:48:03;99297.03;;;7.02;100.00
45253;BME280;63171;50.520;30.486;2023-12-20T01:48:55;99302.16;;;7.03;100.00
45253;BME280;63171;50.520;30.486;2023-12-20T01:49:44;99308.03;;;7.07;100.00
45253;BME280;63171;50.520;30.486;2023-12-20T01:50:34;99300.22;;;7.07;100.00
45253;BME280;63171;50.520;30.486;2023-12-20T01:51:26;99304.53;;;7.08;100.00
45253;BME280;63171;50.520;30.486;2023-12-20T01:52:16;99313.50;;;7.02;100.00
45253;BME280;63171;50.520;30.486;2023-12-20T01:53:07;99304.84;;;7.02;100.00
45253;BME280;63171;50.520;30.486;2023-12-20T01:53:58;99303.00;;;7.04;100.00
45253;BME280;63171;50.520;30.486;2023-12-20T01:54:48;99294.09;;;7.08;100.00
45253;BME280;63171;50.520;30.486;2023-12-20T01:55:38;99294.00;;;7.09;100.00
45253;BME280;63171;50.520;30.486;2023-12-20T01:56:29;99287.19;;;7.07;100.00
45253;BME280;63171;50.520;30.486;2023-12-20T01:57:20;99294.16;;;7.06;100.00
45253;BME280;63171;50.520;30.486;2023-12-20T01:58:12;99281.09;;;7.08;100.00
45253;BME280;63171;50.520;30.486;2023-12-20T01:59:02;99291.31;;;7.11;100.00
45253;BME280;63171;50.520;30.486;2023-12-20T02:00:14;99284.44;;;7.10;100.00
45253;BME280;63171;50.520;30.486;2023-12-20T02:01:05;99288.03;;;7.07;100.00
45253;BME280;63171;50.520;30.486;2023-12-20T02:01:54;99278.53;;;7.06;100.00
45253;BME280;63171;50.520;30.486;2023-12-20T02:02:44;99289.63;;;7.10;100.00
45253;BME280;63171;50.520;30.486;2023-12-20T02:03:35;99287.97;;;7.09;100.00
45253;BME280;63171;50.520;30.486;2023-12-20T02:04:25;99273.09;;;7.11;100.00
45253;BME280;63171;50.520;30.486;2023-12-20T02:05:15;99280.91;;;7.11;100.00
45253;BME280;63171;50.520;30.486;2023-12-20T02:06:06;99282.56;;;7.12;100.00
45253;BME280;63171;50.520;30.486;2023-12-20T02:06:56;99268.63;;;7.13;100.00
45253;BME280;63171;50.520;30.486;2023-12-20T02:07:46;99271.22;;;7.13;100.00
45253;BME280;63171;50.520;30.486;2023-12-20T02:08:37;99268.53;;;7.15;100.00
45253;BME280;63171;50.520;30.486;2023-12-20T02:09:27;99262.41;;;7.16;100.00
45253;BME280;63171;50.520;30.486;2023-12-20T02:10:17;99272.91;;;7.14;100.00
45253;BME280;63171;50.520;30.486;2023-12-20T02:11:07;99267.59;;;7.16;100.00
45253;BME280;63171;50.520;30.486;2023-12-20T02:11:57;99264.16;;;7.15;100.00
45253;BME280;63171;50.520;30.486;2023-12-20T02:12:47;99267.88;;;7.11;100.00
45253;BME280;63171;50.520;30.486;2023-12-20T02:13:38;99266.94;;;7.12;100.00
45253;BME280;63171;50.520;30.486;2023-12-20T02:14:27;99262.59;;;7.13;100.00
45253;BME280;63171;50.520;30.486;2023-12-20T02:15:18;99256.53;;;7.12;100.00
45253;BME280;63171;50.520;30.486;2023-12-20T02:16:09;99260.72;;;7.15;100.00
45253;BME280;63171;50.520;30.486;2023-12-20T02:16:59;99266.88;;;7.14;100.00
45253;BME280;63171;50.520;30.486;2023-12-20T02:17:50;99268.44;;;7.16;100.00
45253;BME280;63171;50.520;30.486;2023-12-20T02:18:40;99266.69;;;7.17;100.00
45253;BME280;63171;50.520;30.486;2023-12-20T02:19:31;99269.28;;;7.17;100.00
45253;BME280;63171;50.520;30.486;2023-12-20T02:20:22;99266.59;;;7.18;100.00
45253;BME280;63171;50.520;30.486;2023-12-20T02:21:11;99271.97;;;7.15;100.00
45253;BME280;63171;50.520;30.486;2023-12-20T02:22:07;99276.25;;;7.16;100.00
45253;BME280;63171;50.520;30.486;2023-12-20T02:22:57;99272.81;;;7.16;100.00
45253;BME280;63171;50.520;30.486;2023-12-20T02:23:47;99266.78;;;7.15;100.00
45253;BME280;63171;50.520;30.486;2023-12-20T02:24:37;99277.94;;;7.17;100.00
45253;BME280;63171;50.520;30.486;2023-12-20T02:25:26;99269.28;;;7.17;100.00
45253;BME280;63171;50.520;30.486;2023-12-20T02:26:17;99265.00;;;7.16;100.00
45253;BME280;63171;50.520;30.486;2023-12-20T02:27:07;99258.88;;;7.17;100.00
45253;BME280;63171;50.520;30.486;2023-12-20T02:27:57;99264.91;;;7.17;100.00
45253;BME280;63171;50.520;30.486;2023-12-20T02:28:49;99262.91;;;7.22;100.00
45253;BME280;63171;50.520;30.486;2023-12-20T02:29:38;99271.78;;;7.18;100.00
45253;BME280;63171;50.520;30.486;2023-12-20T02:30:28;99275.22;;;7.19;100.00
45253;BME280;63171;50.520;30.486;2023-12-20T02:31:20;99270.22;;;7.16;100.00
45253;BME280;63171;50.520;30.486;2023-12-20T02:32:12;99268.44;;;7.16;100.00
45253;BME280;63171;50.520;30.486;2023-12-20T02:33:02;99268.34;;;7.18;100.00
45253;BME280;63171;50.520;30.486;2023-12-20T02:33:55;99276.84;;;7.21;100.00
45253;BME280;63171;50.520;30.486;2023-12-20T02:34:46;99270.78;;;7.21;100.00
45253;BME280;63171;50.520;30.486;2023-12-20T02:35:36;99276.66;;;7.24;100.00
45253;BME280;63171;50.520;30.486;2023-12-20T02:36:26;99274.16;;;7.23;100.00
45253;BME280;63171;50.520;30.486;2023-12-20T02:37:17;99276.75;;;7.23;100.00
45253;BME280;63171;50.520;30.486;2023-12-20T02:38:07;99280.28;;;7.22;100.00
45253;BME280;63171;50.520;30.486;2023-12-20T02:38:58;99272.53;;;7.20;100.00
45253;BME280;63171;50.520;30.486;2023-12-20T02:39:48;99281.19;;;7.21;100.00
45253;BME280;63171;50.520;30.486;2023-12-20T02:40:37;99267.50;;;7.17;100.00
45253;BME280;63171;50.520;30.486;2023-12-20T02:41:28;99263.97;;;7.18;100.00
45253;BME280;63171;50.520;30.486;2023-12-20T02:42:18;99267.44;;;7.19;100.00
45253;BME280;63171;50.520;30.486;2023-12-20T02:43:07;99264.06;;;7.17;100.00
45253;BME280;63171;50.520;30.486;2023-12-20T02:44:00;99264.06;;;7.17;100.00
45253;BME280;63171;50.520;30.486;2023-12-20T02:44:49;99261.84;;;7.10;100.00
45253;BME280;63171;50.520;30.486;2023-12-20T02:45:40;99264.25;;;7.14;100.00
45253;BME280;63171;50.520;30.486;2023-12-20T02:46:29;99262.31;;;7.17;100.00
45253;BME280;63171;50.520;30.486;2023-12-20T02:47:20;99259.97;;;7.13;100.00
45253;BME280;63171;50.520;30.486;2023-12-20T02:48:10;99264.25;;;7.14;100.00
45253;BME280;63171;50.520;30.486;2023-12-20T02:49:00;99263.22;;;7.16;100.00
45253;BME280;63171;50.520;30.486;2023-12-20T02:49:50;99256.53;;;7.12;100.00
45253;BME280;63171;50.520;30.486;2023-12-20T02:50:42;99260.91;;;7.11;100.00
45253;BME280;63171;50.520;30.486;2023-12-20T02:51:32;99258.41;;;7.10;100.00
45253;BME280;63171;50.520;30.486;2023-12-20T02:52:23;99252.44;;;7.08;100.00
45253;BME280;63171;50.520;30.486;2023-12-20T02:53:14;99266.31;;;7.08;100.00
45253;BME280;63171;50.520;30.486;2023-12-20T02:54:04;99249.66;;;7.11;100.00
45253;BME280;63171;50.520;30.486;2023-12-20T02:54:54;99254.03;;;7.10;100.00
45253;BME280;63171;50.520;30.486;2023-12-20T02:55:44;99255.69;;;7.11;100.00
45253;BME280;63171;50.520;30.486;2023-12-20T02:56:34;99263.41;;;7.13;100.00
45253;BME280;63171;50.520;30.486;2023-12-20T02:57:24;99256.53;;;7.12;100.00
45253;BME280;63171;50.520;30.486;2023-12-20T02:58:14;99264.16;;;7.15;100.00
45253;BME280;63171;50.520;30.486;2023-12-20T02:59:04;99259.97;;;7.13;100.00
45253;BME280;63171;50.520;30.486;2023-12-20T02:59:55;99253.00;;;7.13;100.00
45253;BME280;63171;50.520;30.486;2023-12-20T03:00:44;99249.75;;;7.09;100.00
45253;BME280;63171;50.520;30.486;2023-12-20T03:01:34;99247.97;;;7.10;100.00
45253;BME280;63171;50.520;30.486;2023-12-20T03:02:24;99233.19;;;7.10;100.00
45253;BME280;63171;50.520;30.486;2023-12-20T03:03:14;99250.41;;;7.13;100.00
45253;BME280;63171;50.520;30.486;2023-12-20T03:04:05;99233.94;;;7.13;100.00
45253;BME280;63171;50.520;30.486;2023-12-20T03:04:55;99241.09;;;7.09;100.00
45253;BME280;63171;50.520;30.486;2023-12-20T03:05:44;99233.19;;;7.10;100.00
45253;BME280;63171;50.520;30.486;2023-12-20T03:06:35;99240.25;;;7.08;100.00
45253;BME280;63171;50.520;30.486;2023-12-20T03:07:26;99229.16;;;7.05;100.00
45253;BME280;63171;50.520;30.486;2023-12-20T03:08:16;99231.53;;;7.09;100.00
45253;BME280;63171;50.520;30.486;2023-12-20T03:09:07;99225.19;;;7.14;100.00
45253;BME280;63171;50.520;30.486;2023-12-20T03:09:56;99223.81;;;7.08;100.00
45253;BME280;63171;50.520;30.486;2023-12-20T03:10:46;99229.00;;;7.08;100.00
45253;BME280;63171;50.520;30.486;2023-12-20T03:11:36;99229.00;;;7.08;100.00
45253;BME280;63171;50.520;30.486;2023-12-20T03:12:26;99230.50;;;7.12;100.00
45253;BME280;63171;50.520;30.486;2023-12-20T03:13:15;99223.44;;;7.14;100.00
45253;BME280;63171;50.520;30.486;2023-12-20T03:14:06;99223.63;;;7.11;100.00
45253;BME280;63171;50.520;30.486;2023-12-20T03:14:56;99228.91;;;7.09;100.00
45253;BME280;63171;50.520;30.486;2023-12-20T03:15:45;99234.03;;;7.11;100.00
45253;BME280;63171;50.520;30.486;2023-12-20T03:16:36;99227.06;;;7.11;100.00
45253;BME280;63171;50.520;30.486;2023-12-20T03:17:26;99240.31;;;7.07;100.00
45253;BME280;63171;50.520;30.486;2023-12-20T03:18:15;99238.94;;;7.01;100.00
45253;BME280;63171;50.520;30.486;2023-12-20T03:19:07;99238.75;;;7.04;100.00
45253;BME280;63171;50.520;30.486;2023-12-20T03:19:56;99234.28;;;7.06;100.00
45253;BME280;63171;50.520;30.486;2023-12-20T03:20:46;99235.91;;;7.09;100.00
45253;BME280;63171;50.520;30.486;2023-12-20T03:21:39;99230.69;;;7.09;100.00
45253;BME280;63171;50.520;30.486;2023-12-20T03:22:30;99233.34;;;7.07;100.00
45253;BME280;63171;50.520;30.486;2023-12-20T03:23:20;99232.50;;;7.07;100.00
45253;BME280;63171;50.520;30.486;2023-12-20T03:24:10;99238.84;;;7.03;100.00
45253;BME280;63171;50.520;30.486;2023-12-20T03:25:00;99238.84;;;7.03;100.00
45253;BME280;63171;50.520;30.486;2023-12-20T03:25:50;99233.63;;;7.03;100.00
45253;BME280;63171;50.520;30.486;2023-12-20T03:26:40;99236.31;;;7.01;100.00
45253;BME280;63171;50.520;30.486;2023-12-20T03:27:29;99239.09;;;6.98;100.00
45253;BME280;63171;50.520;30.486;2023-12-20T03:28:20;99244.31;;;6.98;100.00
45253;BME280;63171;50.520;30.486;2023-12-20T03:29:10;99232.97;;;6.99;100.00
45253;BME280;63171;50.520;30.486;2023-12-20T03:30:00;99245.06;;;7.00;100.00
45253;BME280;63171;50.520;30.486;2023-12-20T03:30:50;99237.91;;;7.04;100.00
45253;BME280;63171;50.520;30.486;2023-12-20T03:31:40;99236.88;;;7.06;100.00
45253;BME280;63171;50.520;30.486;2023-12-20T03:32:30;99235.94;;;7.07;100.00
45253;BME280;63171;50.520;30.486;2023-12-20T03:33:19;99232.34;;;7.10;100.00
45253;BME280;63171;50.520;30.486;2023-12-20T03:34:10;99238.75;;;7.04;100.00
45253;BME280;63171;50.520;30.486;2023-12-20T03:35:00;99243.84;;;7.06;100.00
45253;BME280;63171;50.520;30.486;2023-12-20T03:35:49;99239.66;;;7.03;100.00
45253;BME280;63171;50.520;30.486;2023-12-20T03:36:40;99240.31;;;7.07;100.00
45253;BME280;63171;50.520;30.486;2023-12-20T03:37:31;99242.19;;;7.05;100.00
45253;BME280;63171;50.520;30.486;2023-12-20T03:38:21;99243.28;;;7.01;100.00
45253;BME280;63171;50.520;30.486;2023-12-20T03:39:13;99238.28;;;6.98;100.00
45253;BME280;63171;50.520;30.486;2023-12-20T03:40:03;99243.38;;;6.99;100.00
45253;BME280;63171;50.520;30.486;2023-12-20T03:40:54;99238.84;;;7.03;100.00
45253;BME280;63171;50.520;30.486;2023-12-20T03:41:43;99247.66;;;7.00;100.00
45253;BME280;63171;50.520;30.486;2023-12-20T03:42:33;99245.91;;;7.01;100.00
45253;BME280;63171;50.520;30.486;2023-12-20T03:43:23;99247.47;;;7.03;100.00
45253;BME280;63171;50.520;30.486;2023-12-20T03:44:13;99237.25;;;7.00;100.00
45253;BME280;63171;50.520;30.486;2023-12-20T03:45:03;99237.34;;;6.99;100.00
45253;BME280;63171;50.520;30.486;2023-12-20T03:45:53;99239.09;;;6.98;100.00
45253;BME280;63171;50.520;30.486;2023-12-20T03:46:43;99232.13;;;6.99;100.00
45253;BME280;63171;50.520;30.486;2023-12-20T03:47:34;99242.72;;;6.96;100.00
45253;BME280;63171;50.520;30.486;2023-12-20T03:48:25;99242.72;;;6.96;100.00
45253;BME280;63171;50.520;30.486;2023-12-20T03:49:14;99235.75;;;6.96;100.00
45253;BME280;63171;50.520;30.486;2023-12-20T03:50:05;99243.56;;;6.96;100.00
45253;BME280;63171;50.520;30.486;2023-12-20T03:50:56;99239.00;;;7.00;100.00
45253;BME280;63171;50.520;30.486;2023-12-20T03:51:46;99235.47;;;7.01;100.00
45253;BME280;63171;50.520;30.486;2023-12-20T03:52:37;99232.31;;;6.96;100.00
45253;BME280;63171;50.520;30.486;2023-12-20T03:53:27;99240.97;;;6.96;100.00
45253;BME280;63171;50.520;30.486;2023-12-20T03:54:17;99244.41;;;6.97;100.00
45253;BME280;63171;50.520;30.486;2023-12-20T03:55:06;99240.97;;;6.96;100.00
45253;BME280;63171;50.520;30.486;2023-12-20T03:55:57;99239.09;;;6.98;100.00
45253;BME280;63171;50.520;30.486;2023-12-20T03:56:47;99232.78;;;7.02;100.00
45253;BME280;63171;50.520;30.486;2023-12-20T03:57:36;99233.72;;;7.01;100.00
45253;BME280;63171;50.520;30.486;2023-12-20T03:58:27;99234.56;;;7.02;100.00
45253;BME280;63171;50.520;30.486;2023-12-20T03:59:17;99225.25;;;6.98;100.00
45253;BME280;63171;50.520;30.486;2023-12-20T04:00:07;99237.34;;;6.99;100.00
45253;BME280;63171;50.520;30.486;2023-12-20T04:01:01;99241.63;;;7.00;100.00
45253;BME280;63171;50.520;30.486;2023-12-20T04:01:51;99233.63;;;7.03;100.00
45253;BME280;63171;50.520;30.486;2023-12-20T04:02:42;99234.38;;;7.05;100.00
45253;BME280;63171;50.520;30.486;2023-12-20T04:03:32;99235.56;;;6.99;100.00
45253;BME280;63171;50.520;30.486;2023-12-20T04:04:22;99237.25;;;7.00;100.00
45253;BME280;63171;50.520;30.486;2023-12-20T04:05:13;99232.03;;;7.00;100.00
45253;BME280;63171;50.520;30.486;2023-12-20T04:06:02;99238.09;;;7.01;100.00
45253;BME280;63171;50.520;30.486;2023-12-20T04:06:53;99227.69;;;7.01;100.00
45253;BME280;63171;50.520;30.486;2023-12-20T04:07:45;99233.91;;;6.98;100.00
45253;BME280;63171;50.520;30.486;2023-12-20T04:08:34;99241.91;;;6.95;100.00
45253;BME280;63171;50.520;30.486;2023-12-20T04:09:24;99239.09;;;6.98;100.00
45253;BME280;63171;50.520;30.486;2023-12-20T04:10:14;99242.38;;;7.02;100.00
45253;BME280;63171;50.520;30.486;2023-12-20T04:11:04;99244.31;;;6.98;100.00
45253;BME280;63171;50.520;30.486;2023-12-20T04:11:54;99243.47;;;6.98;100.00
45253;BME280;63171;50.520;30.486;2023-12-20T04:12:45;99234.66;;;7.00;100.00
45253;BME280;63171;50.520;30.486;2023-12-20T04:13:34;99236.31;;;7.01;100.00
45253;BME280;63171;50.520;30.486;2023-12-20T04:14:25;99242.56;;;6.99;100.00
45253;BME280;63171;50.520;30.486;2023-12-20T04:15:15;99244.13;;;7.01;100.00
45253;BME280;63171;50.520;30.486;2023-12-20T04:16:04;99242.56;;;6.99;100.00
45253;BME280;63171;50.520;30.486;2023-12-20T04:16:55;99242.72;;;6.96;100.00
45253;BME280;63171;50.520;30.486;2023-12-20T04:17:44;99242.63;;;6.97;100.00
45253;BME280;63171;50.520;30.486;2023-12-20T04:18:34;99242.22;;;6.89;100.00
45253;BME280;63171;50.520;30.486;2023-12-20T04:19:24;99245.84;;;6.87;100.00
45253;BME280;63171;50.520;30.486;2023-12-20T04:20:14;99248.63;;;6.84;100.00
45253;BME280;63171;50.520;30.486;2023-12-20T04:21:04;99245.19;;;6.83;100.00
45253;BME280;63171;50.520;30.486;2023-12-20T04:21:54;99246.88;;;6.84;100.00
45253;BME280;63171;50.520;30.486;2023-12-20T04:22:45;99256.25;;;6.87;100.00
45253;BME280;63171;50.520;30.486;2023-12-20T04:23:35;99256.16;;;6.88;100.00
45253;BME280;63171;50.520;30.486;2023-12-20T04:24:25;99253.38;;;6.91;100.00
45253;BME280;63171;50.520;30.486;2023-12-20T04:25:15;99259.44;;;6.92;100.00
45253;BME280;63171;50.520;30.486;2023-12-20T04:26:04;99250.69;;;6.93;100.00
45253;BME280;63171;50.520;30.486;2023-12-20T04:26:55;99245.56;;;6.91;100.00